createdAt,value
2018-01-18T00:01:41.380Z,98476.66
2018-01-18T00:04:09.680Z,98471.38
2018-01-18T00:06:37.955Z,98469.56
2018-01-18T00:09:06.200Z,98465.90
2018-01-18T00:11:34.487Z,98469.52
2018-01-18T00:14:02.766Z,98448.66
2018-01-18T00:16:31.038Z,98451.70
2018-01-18T00:18:59.291Z,98458.30
2018-01-18T00:21:27.573Z,98441.97
2018-01-18T00:23:55.835Z,98444.43
2018-01-18T00:26:24.115Z,98438.39
2018-01-18T00:28:52.407Z,98430.24
2018-01-18T00:31:20.680Z,98427.98
2018-01-18T00:33:48.966Z,98417.27
2018-01-18T00:36:17.240Z,98413.94
2018-01-18T00:38:45.560Z,98418.63
2018-01-18T00:41:13.819Z,98420.23
2018-01-18T00:43:42.098Z,98423.70
2018-01-18T00:46:10.365Z,98421.54
2018-01-18T00:48:38.650Z,98423.16
2018-01-18T00:51:06.906Z,98416.20
2018-01-18T00:53:35.195Z,98413.73
2018-01-18T00:56:03.479Z,98409.45
2018-01-18T00:58:31.756Z,98390.08
2018-01-18T01:01:00.165Z,98402.71
2018-01-18T01:03:28.400Z,98398.83
2018-01-18T01:05:56.643Z,98403.75
2018-01-18T01:08:25.018Z,98389.31
2018-01-18T01:10:53.273Z,98383.31
2018-01-18T01:13:21.546Z,98378.45
2018-01-18T01:15:49.822Z,98364.30
2018-01-18T01:18:18.075Z,98346.08
2018-01-18T01:20:46.374Z,98343.22
2018-01-18T01:23:14.687Z,98336.67
2018-01-18T01:25:42.947Z,98332.25
2018-01-18T01:28:12.153Z,98330.13
2018-01-18T01:30:40.419Z,98333.20
2018-01-18T01:33:08.692Z,98339.37
2018-01-18T01:35:36.968Z,98346.64
2018-01-18T01:38:05.245Z,98336.91
2018-01-18T01:40:33.743Z,98342.13
2018-01-18T01:43:02.029Z,98334.56
2018-01-18T01:45:30.279Z,98334.69
2018-01-18T01:47:58.567Z,98331.67
2018-01-18T01:50:26.831Z,98329.78
2018-01-18T01:52:55.114Z,98301.94
2018-01-18T01:55:23.371Z,98300.84
2018-01-18T01:57:51.662Z,98302.52
2018-01-18T02:00:19.926Z,98276.13
2018-01-18T02:02:48.243Z,98269.25
2018-01-18T02:05:16.500Z,98280.67
2018-01-18T02:07:44.783Z,98260.41
2018-01-18T02:10:13.044Z,98255.28
2018-01-18T02:12:41.354Z,98253.24
2018-01-18T02:15:09.647Z,98244.73
2018-01-18T02:17:37.910Z,98240.47
2018-01-18T02:20:06.186Z,98228.95
2018-01-18T02:22:34.444Z,98241.13
2018-01-18T02:25:02.723Z,98225.52
2018-01-18T02:27:30.977Z,98210.76
2018-01-18T02:29:59.268Z,98212.44
2018-01-18T02:32:27.540Z,98190.14
2018-01-18T02:34:55.814Z,98191.44
2018-01-18T02:37:24.089Z,98195.02
2018-01-18T02:39:52.368Z,98191.58
2018-01-18T02:42:20.620Z,98192.97
2018-01-18T02:44:48.915Z,98182.67
2018-01-18T02:47:17.205Z,98175.12
2018-01-18T02:49:45.515Z,98170.56
2018-01-18T02:52:14.026Z,98164.05
2018-01-18T02:54:42.296Z,98170.42
2018-01-18T02:57:10.624Z,98169.20
2018-01-18T02:59:38.888Z,98152.30
2018-01-18T03:02:07.178Z,98147.86
2018-01-18T03:04:35.588Z,98137.01
2018-01-18T03:07:04.895Z,98126.73
2018-01-18T03:09:33.163Z,98125.55
2018-01-18T03:12:01.491Z,98104.57
2018-01-18T03:14:29.738Z,98108.41
2018-01-18T03:16:58.011Z,98091.79
2018-01-18T03:19:26.308Z,98090.16
2018-01-18T03:21:54.871Z,98079.29
2018-01-18T03:24:23.143Z,98078.43
2018-01-18T03:26:51.427Z,98059.89
2018-01-18T03:29:19.678Z,98066.76
2018-01-18T03:31:47.977Z,98052.61
2018-01-18T03:34:16.259Z,98038.35
2018-01-18T03:36:44.548Z,98038.09
2018-01-18T03:39:12.843Z,98032.86
2018-01-18T03:41:41.130Z,98013.13
2018-01-18T03:44:09.399Z,98018.31
2018-01-18T03:46:37.669Z,98006.14
2018-01-18T03:49:06.155Z,97999.74
2018-01-18T03:51:34.410Z,97982.34
2018-01-18T03:54:02.712Z,97986.44
2018-01-18T03:56:30.980Z,97983.21
2018-01-18T03:58:59.266Z,97963.77
2018-01-18T04:01:27.519Z,97963.44
2018-01-18T04:03:55.803Z,97947.95
2018-01-18T04:06:24.069Z,97937.33
2018-01-18T04:08:52.343Z,97940.48
2018-01-18T04:11:20.627Z,97924.41
2018-01-18T04:13:48.884Z,97922.51
2018-01-18T04:16:17.213Z,97910.45
2018-01-18T04:18:45.473Z,97901.00
2018-01-18T04:21:13.766Z,97885.38
2018-01-18T04:23:42.015Z,97877.81
2018-01-18T04:26:10.309Z,97876.34
2018-01-18T04:28:38.549Z,97872.79
2018-01-18T04:31:06.832Z,97843.86
2018-01-18T04:33:35.086Z,97861.13
2018-01-18T04:36:03.383Z,97847.27
2018-01-18T04:38:31.975Z,97839.89
2018-01-18T04:41:00.221Z,97834.80
2018-01-18T04:43:29.137Z,97824.95
2018-01-18T04:45:58.082Z,97820.66
2018-01-18T04:48:26.348Z,97806.73
2018-01-18T04:50:54.627Z,97779.11
2018-01-18T04:53:22.906Z,97808.11
2018-01-18T04:55:51.151Z,97781.29
2018-01-18T04:58:19.437Z,97781.47
2018-01-18T05:00:47.684Z,97762.25
2018-01-18T05:03:15.965Z,97768.04
2018-01-18T05:05:44.222Z,97751.97
2018-01-18T05:08:12.511Z,97740.07
2018-01-18T05:10:40.765Z,97736.80
2018-01-18T05:13:09.042Z,97724.10
2018-01-18T05:15:37.335Z,97724.65
2018-01-18T05:18:05.911Z,97709.43
2018-01-18T05:20:34.162Z,97699.13
2018-01-18T05:23:02.430Z,97686.56
2018-01-18T05:25:30.702Z,97675.22
2018-01-18T05:27:58.942Z,97661.20
2018-01-18T05:30:27.414Z,97649.16
2018-01-18T05:32:55.676Z,97633.39
2018-01-18T05:35:23.956Z,97632.69
2018-01-18T05:37:52.270Z,97637.52
2018-01-18T05:40:20.497Z,97636.91
2018-01-18T05:42:49.086Z,97612.12
2018-01-18T05:45:17.347Z,97629.15
2018-01-18T05:47:45.655Z,97614.94
2018-01-18T05:50:13.901Z,97613.75
2018-01-18T05:52:42.203Z,97609.33
2018-01-18T05:55:10.446Z,97610.38
2018-01-18T05:57:38.736Z,97598.03
2018-01-18T06:00:06.996Z,97594.39
2018-01-18T06:02:35.287Z,97591.28
2018-01-18T06:05:03.551Z,97571.56
2018-01-18T06:07:31.835Z,97596.78
2018-01-18T06:10:00.095Z,97585.53
2018-01-18T06:12:28.374Z,97560.42
2018-01-18T06:14:56.635Z,97590.62
2018-01-18T06:17:24.903Z,97554.55
2018-01-18T06:19:53.142Z,97606.73
2018-01-18T06:22:21.411Z,97588.45
2018-01-18T06:24:49.723Z,97581.62
2018-01-18T06:27:17.973Z,97573.23
2018-01-18T06:29:46.270Z,97557.94
2018-01-18T06:32:14.552Z,97576.23
2018-01-18T06:34:42.849Z,97559.53
2018-01-18T06:37:11.085Z,97554.17
2018-01-18T06:39:39.405Z,97533.11
2018-01-18T06:42:07.646Z,97539.65
2018-01-18T06:44:35.931Z,97524.37
2018-01-18T06:47:04.939Z,97514.53
2018-01-18T06:49:33.214Z,97507.59
2018-01-18T06:52:01.469Z,97490.52
2018-01-18T06:54:29.764Z,97479.91
2018-01-18T06:56:58.682Z,97491.95
2018-01-18T06:59:26.932Z,97467.52
2018-01-18T07:01:55.243Z,97506.59
2018-01-18T07:04:23.511Z,97465.03
2018-01-18T07:06:51.816Z,97513.39
2018-01-18T07:09:20.071Z,97480.31
2018-01-18T07:11:48.377Z,97455.25
2018-01-18T07:14:16.636Z,97418.48
2018-01-18T07:16:45.806Z,97458.13
2018-01-18T07:19:14.072Z,97450.25
2018-01-18T07:21:42.360Z,97412.61
2018-01-18T07:24:10.648Z,97388.41
2018-01-18T07:26:41.820Z,97400.33
2018-01-18T07:29:10.121Z,97403.57
2018-01-18T07:31:38.371Z,97394.94
2018-01-18T07:34:06.658Z,97395.08
2018-01-18T07:36:34.913Z,97411.66
2018-01-18T07:39:04.072Z,97396.23
2018-01-18T07:41:32.368Z,97404.48
2018-01-18T07:44:00.654Z,97376.89
2018-01-18T07:46:28.915Z,97362.45
2018-01-18T07:48:57.254Z,97367.17
2018-01-18T07:51:25.519Z,97396.20
2018-01-18T07:53:59.365Z,97336.95
2018-01-18T07:56:27.621Z,97353.12
2018-01-18T07:58:55.934Z,97335.08
2018-01-18T08:01:24.185Z,97359.11
2018-01-18T08:03:57.904Z,97328.59
2018-01-18T08:06:26.168Z,97321.26
2018-01-18T08:08:54.462Z,97353.57
2018-01-18T08:11:22.717Z,97341.61
2018-01-18T08:13:50.986Z,97329.84
2018-01-18T08:16:19.255Z,97322.45
2018-01-18T08:18:47.571Z,97356.10
2018-01-18T08:21:15.855Z,97314.70
2018-01-18T08:23:44.149Z,97305.23
2018-01-18T08:26:12.413Z,97307.44
2018-01-18T08:28:40.660Z,97347.20
2018-01-18T08:31:08.941Z,97332.94
2018-01-18T08:33:37.207Z,97327.09
2018-01-18T08:36:05.527Z,97331.94
2018-01-18T08:38:33.799Z,97312.77
2018-01-18T08:41:02.085Z,97349.42
2018-01-18T08:43:30.350Z,97319.78
2018-01-18T08:45:58.750Z,97345.86
2018-01-18T08:48:27.006Z,97309.38
2018-01-18T08:50:55.328Z,97353.05
2018-01-18T08:53:23.567Z,97333.27
2018-01-18T08:55:52.088Z,97333.64
2018-01-18T08:58:20.508Z,97333.14
2018-01-18T09:00:48.740Z,97329.41
2018-01-18T09:03:17.017Z,97335.28
2018-01-18T09:05:45.358Z,97314.49
2018-01-18T09:08:13.643Z,97325.19
2018-01-18T09:10:43.113Z,97300.03
2018-01-18T09:13:11.434Z,97321.01
2018-01-18T09:15:39.721Z,97314.72
2018-01-18T09:18:08.046Z,97315.60
2018-01-18T09:20:36.294Z,97324.33
2018-01-18T09:23:04.648Z,97315.14
2018-01-18T09:25:32.931Z,97276.17
2018-01-18T09:28:01.258Z,97294.94
2018-01-18T09:30:29.482Z,97330.08
2018-01-18T09:32:57.789Z,97323.39
2018-01-18T09:35:26.075Z,97307.86
2018-01-18T09:37:54.331Z,97301.80
2018-01-18T09:40:22.633Z,97305.61
2018-01-18T09:42:50.889Z,97325.07
2018-01-18T09:45:20.281Z,97311.36
2018-01-18T09:47:48.515Z,97321.79
2018-01-18T09:50:16.790Z,97316.33
2018-01-18T09:52:45.100Z,97248.42
2018-01-18T09:55:13.352Z,97295.89
2018-01-18T09:57:41.621Z,97297.27
2018-01-18T10:00:09.901Z,97318.18
2018-01-18T10:02:38.164Z,97282.31
2018-01-18T10:05:06.502Z,97329.05
2018-01-18T10:07:34.816Z,97298.92
2018-01-18T10:10:03.059Z,97306.03
2018-01-18T10:12:31.337Z,97321.22
2018-01-18T10:14:59.646Z,97311.42
2018-01-18T10:17:27.928Z,97316.98
2018-01-18T10:19:56.220Z,97296.60
2018-01-18T10:22:24.523Z,97309.75
2018-01-18T10:24:52.766Z,97301.56
2018-01-18T10:27:21.074Z,97271.75
2018-01-18T10:29:49.350Z,97288.05
2018-01-18T10:32:17.839Z,97289.53
2018-01-18T10:34:46.598Z,97305.05
2018-01-18T10:37:14.416Z,97327.34
2018-01-18T10:39:42.910Z,97306.38
2018-01-18T10:42:11.453Z,97306.42
2018-01-18T10:44:39.737Z,97275.72
2018-01-18T10:47:08.025Z,97283.83
2018-01-18T10:49:36.333Z,97259.30
2018-01-18T10:52:05.566Z,97257.45
2018-01-18T10:54:33.835Z,97253.34
2018-01-18T10:57:02.080Z,97280.12
2018-01-18T10:59:30.371Z,97283.38
2018-01-18T11:01:58.636Z,97230.03
2018-01-18T11:04:27.093Z,97241.97
2018-01-18T11:06:55.328Z,97267.24
2018-01-18T11:09:23.596Z,97271.48
2018-01-18T11:11:51.849Z,97284.35
2018-01-18T11:14:20.174Z,97288.82
2018-01-18T11:16:49.234Z,97298.33
2018-01-18T11:19:17.508Z,97270.59
2018-01-18T11:21:45.791Z,97305.23
2018-01-18T11:24:14.045Z,97290.79
2018-01-18T11:26:42.333Z,97283.28
2018-01-18T11:29:10.627Z,97316.95
2018-01-18T11:31:38.883Z,97311.81
2018-01-18T11:34:07.139Z,97341.61
2018-01-18T11:36:35.428Z,97382.69
2018-01-18T11:39:03.759Z,97339.80
2018-01-18T11:41:32.082Z,97357.71
2018-01-18T11:44:00.337Z,97325.33
2018-01-18T11:46:28.628Z,97327.11
2018-01-18T11:48:56.915Z,97353.62
2018-01-18T11:51:25.198Z,97354.92
2018-01-18T11:53:53.519Z,97332.59
2018-01-18T11:56:21.878Z,97330.35
2018-01-18T11:58:50.110Z,97359.09
2018-01-18T12:01:18.395Z,97304.88
2018-01-18T12:03:46.691Z,97373.22
2018-01-18T12:06:15.110Z,97375.27
2018-01-18T12:08:43.387Z,97336.30
2018-01-18T12:11:11.730Z,97353.05
2018-01-18T12:13:39.996Z,97374.20
2018-01-18T12:16:08.250Z,97415.98
2018-01-18T12:18:36.560Z,97359.40
2018-01-18T12:21:05.061Z,97375.75
2018-01-18T12:23:33.391Z,97390.13
2018-01-18T12:26:01.680Z,97380.13
2018-01-18T12:28:30.016Z,97398.23
2018-01-18T12:30:58.279Z,97393.59
2018-01-18T12:33:26.598Z,97394.12
2018-01-18T12:35:54.868Z,97391.70
2018-01-18T12:38:23.150Z,97401.05
2018-01-18T12:40:51.426Z,97412.30
2018-01-18T12:43:19.754Z,97412.89
2018-01-18T12:45:48.019Z,97411.88
2018-01-18T12:48:16.280Z,97389.50
2018-01-18T12:50:44.574Z,97391.30
2018-01-18T12:53:12.882Z,97415.25
2018-01-18T12:55:41.179Z,97400.44
2018-01-18T12:58:09.454Z,97394.15
2018-01-18T13:00:37.785Z,97387.78
2018-01-18T13:03:06.006Z,97391.83
2018-01-18T13:05:34.289Z,97371.52
2018-01-18T13:08:02.559Z,97380.00
2018-01-18T13:10:30.919Z,97404.56
2018-01-18T13:12:59.225Z,97398.17
2018-01-18T13:15:27.567Z,97404.11
2018-01-18T13:17:56.130Z,97399.37
2018-01-18T13:20:24.455Z,97411.33
2018-01-18T13:22:52.735Z,97406.09
2018-01-18T13:25:21.007Z,97404.64
2018-01-18T13:27:49.686Z,97396.25
2018-01-18T13:30:17.964Z,97409.92
2018-01-18T13:32:46.309Z,97391.63
2018-01-18T13:35:14.595Z,97406.77
2018-01-18T13:37:42.881Z,97383.92
2018-01-18T13:40:11.285Z,97413.37
2018-01-18T13:42:39.802Z,97412.39
2018-01-18T13:45:09.412Z,97428.52
2018-01-18T13:47:37.898Z,97419.47
2018-01-18T13:50:06.896Z,97448.52
2018-01-18T13:52:35.200Z,97432.53
2018-01-18T13:55:03.519Z,97443.61
2018-01-18T13:57:31.807Z,97436.83
2018-01-18T14:00:00.077Z,97439.91
2018-01-18T14:02:28.363Z,97448.36
2018-01-18T14:04:56.663Z,97445.48
2018-01-18T14:07:24.931Z,97441.55
2018-01-18T14:09:53.435Z,97461.58
2018-01-18T14:12:21.714Z,97468.72
2018-01-18T14:14:50.043Z,97474.83
2018-01-18T14:17:18.313Z,97486.53
2018-01-18T14:19:46.708Z,97477.65
2018-01-18T14:22:15.159Z,97485.87
2018-01-18T14:24:43.491Z,97483.86
2018-01-18T14:27:11.797Z,97501.36
2018-01-18T14:29:40.127Z,97504.39
2018-01-18T14:32:08.476Z,97501.80
2018-01-18T14:34:36.781Z,97491.68
2018-01-18T14:37:06.374Z,97476.80
2018-01-18T14:39:34.746Z,97498.97
2018-01-18T14:42:03.056Z,97499.32
2018-01-18T14:44:31.364Z,97502.53
2018-01-18T14:46:59.683Z,97518.75
2018-01-18T14:49:29.734Z,97517.20
2018-01-18T14:51:58.176Z,97522.52
2018-01-18T14:54:26.479Z,97524.58
2018-01-18T14:56:54.913Z,97520.02
2018-01-18T14:59:23.174Z,97528.14
2018-01-18T15:01:51.471Z,97527.30
2018-01-18T15:04:19.740Z,97528.23
2018-01-18T15:06:48.047Z,97529.06
2018-01-18T15:09:16.370Z,97525.06
2018-01-18T15:11:44.667Z,97531.55
2018-01-18T15:14:13.010Z,97533.13
2018-01-18T15:16:41.363Z,97539.86
2018-01-18T15:19:09.655Z,97535.17
2018-01-18T15:21:37.945Z,97548.30
2018-01-18T15:24:06.204Z,97545.83
2018-01-18T15:26:35.363Z,97549.63
2018-01-18T15:29:04.137Z,97556.73
2018-01-18T15:31:32.474Z,97555.80
2018-01-18T15:34:01.004Z,97557.20
2018-01-18T15:36:29.232Z,97567.02
2018-01-18T15:38:57.681Z,97557.55
2018-01-18T15:41:26.016Z,97577.13
2018-01-18T15:43:54.350Z,97573.70
2018-01-18T15:46:23.366Z,97570.11
2018-01-18T15:48:51.656Z,97579.66
2018-01-18T15:51:20.764Z,97592.58
2018-01-18T15:53:49.087Z,97585.50
2018-01-18T15:56:17.395Z,97598.93
2018-01-18T15:58:45.783Z,97587.73
2018-01-18T16:01:14.051Z,97588.53
2018-01-18T16:03:42.431Z,97613.77
2018-01-18T16:06:10.703Z,97617.48
2018-01-18T16:08:39.004Z,97624.95
2018-01-18T16:11:07.386Z,97622.75
2018-01-18T16:13:35.658Z,97626.44
2018-01-18T16:16:04.013Z,97632.36
2018-01-18T16:18:32.263Z,97633.62
2018-01-18T16:21:00.583Z,97639.52
2018-01-18T16:23:28.916Z,97626.76
2018-01-18T16:25:57.290Z,97628.84
2018-01-18T16:28:25.542Z,97638.39
2018-01-18T16:30:53.868Z,97627.91
2018-01-18T16:33:22.127Z,97623.07
2018-01-18T16:35:50.434Z,97631.13
2018-01-18T16:38:18.831Z,97646.05
2018-01-18T16:40:47.141Z,97660.37
2018-01-18T16:43:15.480Z,97660.52
2018-01-18T16:45:43.760Z,97652.48
2018-01-18T16:48:12.035Z,97650.61
2018-01-18T16:50:40.449Z,97648.67
2018-01-18T16:53:09.100Z,97643.03
2018-01-18T16:55:37.745Z,97658.70
2018-01-18T16:58:05.986Z,97657.10
2018-01-18T17:00:34.318Z,97636.22
2018-01-18T17:03:02.616Z,97639.83
2018-01-18T17:05:31.739Z,97658.21
2018-01-18T17:08:00.096Z,97655.13
2018-01-18T17:10:28.362Z,97656.13
2018-01-18T17:12:56.680Z,97647.73
2018-01-18T17:15:24.953Z,97641.23
2018-01-18T17:17:53.250Z,97636.41
2018-01-18T17:20:21.495Z,97664.44
2018-01-18T17:22:49.797Z,97678.83
2018-01-18T17:25:18.092Z,97682.80
2018-01-18T17:27:46.406Z,97679.23
2018-01-18T17:30:14.672Z,97700.20
2018-01-18T17:32:42.958Z,97703.70
2018-01-18T17:35:11.233Z,97698.67
2018-01-18T17:37:39.630Z,97719.41
2018-01-18T17:40:07.892Z,97724.04
2018-01-18T17:42:36.249Z,97714.37
2018-01-18T17:45:05.063Z,97727.34
2018-01-18T17:47:33.307Z,97725.09
2018-01-18T17:50:01.669Z,97722.99
2018-01-18T17:52:29.932Z,97715.16
2018-01-18T17:54:58.223Z,97722.00
2018-01-18T17:57:26.495Z,97723.61
2018-01-18T17:59:54.869Z,97711.34
2018-01-18T18:02:23.285Z,97719.32
2018-01-18T18:04:51.591Z,97727.75
2018-01-18T18:07:19.873Z,97731.70
2018-01-18T18:09:48.493Z,97732.12
2018-01-18T18:12:16.908Z,97732.52
2018-01-18T18:14:45.389Z,97723.80
2018-01-18T18:17:14.910Z,97736.59
2018-01-18T18:19:43.156Z,97743.95
2018-01-18T18:22:11.462Z,97750.80
2018-01-18T18:24:39.713Z,97745.83
2018-01-18T18:27:08.019Z,97732.73
2018-01-18T18:29:36.294Z,97732.92
2018-01-18T18:32:04.551Z,97733.31
2018-01-18T18:34:32.820Z,97751.77
2018-01-18T18:37:01.118Z,97749.31
2018-01-18T18:39:30.303Z,97744.58
2018-01-18T18:41:58.594Z,97753.16
2018-01-18T18:44:26.846Z,97764.45
2018-01-18T18:46:55.250Z,97761.83
2018-01-18T18:49:23.495Z,97755.36
2018-01-18T18:51:51.758Z,97758.52
2018-01-18T18:54:20.470Z,97762.06
2018-01-18T18:56:48.830Z,97755.59
2018-01-18T18:59:17.108Z,97747.11
2018-01-18T19:01:45.381Z,97759.00
2018-01-18T19:04:13.671Z,97763.49
2018-01-18T19:06:41.923Z,97769.14
2018-01-18T19:09:10.250Z,97769.00
2018-01-18T19:11:38.488Z,97777.02
2018-01-18T19:14:06.828Z,97786.34
2018-01-18T19:16:35.073Z,97781.36
2018-01-18T19:19:03.395Z,97775.47
2018-01-18T19:21:31.656Z,97783.36
2018-01-18T19:23:59.967Z,97776.28
2018-01-18T19:26:28.958Z,97773.41
2018-01-18T19:28:57.266Z,97773.67
2018-01-18T19:31:25.532Z,97784.05
2018-01-18T19:33:53.795Z,97779.45
2018-01-18T19:36:22.904Z,97776.93
2018-01-18T19:38:51.176Z,97781.26
2018-01-18T19:41:19.467Z,97772.84
2018-01-18T19:43:47.741Z,97772.28
2018-01-18T19:46:16.012Z,97776.88
2018-01-18T19:48:44.281Z,97777.91
2018-01-18T19:51:12.955Z,97773.78
2018-01-18T19:53:41.249Z,97771.56
2018-01-18T19:56:09.504Z,97775.90
2018-01-18T19:58:37.845Z,97782.77
2018-01-18T20:01:06.127Z,97778.95
2018-01-18T20:03:34.418Z,97774.89
2018-01-18T20:06:02.682Z,97773.34
2018-01-18T20:08:30.994Z,97746.99
2018-01-18T20:11:00.110Z,97752.87
2018-01-18T20:13:28.421Z,97755.64
2018-01-18T20:15:56.705Z,97750.95
2018-01-18T20:18:25.016Z,97740.23
2018-01-18T20:20:53.311Z,97750.73
2018-01-18T20:23:21.595Z,97753.26
2018-01-18T20:25:49.907Z,97745.95
2018-01-18T20:28:18.191Z,97757.66
2018-01-18T20:30:46.495Z,97750.18
2018-01-18T20:33:14.793Z,97747.83
2018-01-18T20:35:43.063Z,97750.34
2018-01-18T20:38:11.381Z,97746.26
2018-01-18T20:40:39.672Z,97743.48
2018-01-18T20:43:07.943Z,97737.49
2018-01-18T20:45:36.245Z,97748.02
2018-01-18T20:48:04.996Z,97743.56
2018-01-18T20:50:33.291Z,97748.62
2018-01-18T20:53:01.566Z,97748.48
2018-01-18T20:55:29.862Z,97755.57
2018-01-18T20:57:58.183Z,97751.76
2018-01-18T21:00:26.503Z,97753.60
2018-01-18T21:02:54.829Z,97754.00
2018-01-18T21:05:23.111Z,97733.77
2018-01-18T21:07:51.392Z,97736.38
2018-01-18T21:10:19.700Z,97732.42
2018-01-18T21:12:47.963Z,97738.72
2018-01-18T21:15:16.252Z,97745.53
2018-01-18T21:17:44.514Z,97742.39
2018-01-18T21:20:12.862Z,97738.00
2018-01-18T21:22:41.141Z,97750.02
2018-01-18T21:25:09.460Z,97729.03
2018-01-18T21:27:37.765Z,97734.66
2018-01-18T21:30:06.137Z,97733.52
2018-01-18T21:32:34.437Z,97732.08
2018-01-18T21:35:02.721Z,97729.83
2018-01-18T21:37:31.006Z,97721.52
2018-01-18T21:39:59.290Z,97711.39
2018-01-18T21:42:27.576Z,97723.25
2018-01-18T21:44:55.838Z,97705.77
2018-01-18T21:47:24.152Z,97709.31
2018-01-18T21:49:52.420Z,97720.78
2018-01-18T21:52:20.739Z,97709.58
2018-01-18T21:54:49.007Z,97704.55
2018-01-18T21:57:17.311Z,97702.60
2018-01-18T21:59:46.469Z,97698.24
2018-01-18T22:02:14.802Z,97697.55
2018-01-18T22:04:43.648Z,97697.83
2018-01-18T22:07:11.952Z,97696.86
2018-01-18T22:09:40.230Z,97696.23
2018-01-18T22:12:08.494Z,97699.56
2018-01-18T22:14:36.892Z,97683.70
2018-01-18T22:17:05.192Z,97702.73
2018-01-18T22:19:33.492Z,97698.03
2018-01-18T22:22:01.739Z,97691.39
2018-01-18T22:24:30.286Z,97687.84
2018-01-18T22:26:58.526Z,97685.91
2018-01-18T22:29:26.828Z,97690.77
2018-01-18T22:31:55.099Z,97693.22
2018-01-18T22:34:23.446Z,97695.55
2018-01-18T22:36:51.708Z,97697.55
2018-01-18T22:39:20.038Z,97699.14
2018-01-18T22:41:48.286Z,97704.84
2018-01-18T22:44:16.549Z,97694.52
2018-01-18T22:46:44.851Z,97685.47
2018-01-18T22:49:13.116Z,97696.34
2018-01-18T22:51:41.442Z,97684.63
2018-01-18T22:54:09.791Z,97685.44
2018-01-18T22:56:38.084Z,97689.25
2018-01-18T22:59:06.358Z,97677.69
2018-01-18T23:01:34.671Z,97682.28
2018-01-18T23:04:02.931Z,97680.34
2018-01-18T23:06:31.278Z,97673.91
2018-01-18T23:08:59.543Z,97676.78
2018-01-18T23:11:27.854Z,97713.59
2018-01-18T23:13:56.123Z,97734.43
2018-01-18T23:16:24.429Z,97762.31
2018-01-18T23:18:52.708Z,97745.97
2018-01-18T23:21:21.035Z,97774.63
2018-01-18T23:23:49.330Z,97781.43
2018-01-18T23:26:17.608Z,97765.41
2018-01-18T23:28:45.888Z,97756.74
2018-01-18T23:31:14.141Z,97756.23
2018-01-18T23:33:42.424Z,97755.31
2018-01-18T23:36:10.690Z,97753.72
2018-01-18T23:38:38.984Z,97750.86
2018-01-18T23:41:07.273Z,97763.73
2018-01-18T23:43:35.547Z,97773.95
2018-01-18T23:46:04.850Z,97768.06
2018-01-18T23:48:33.143Z,97782.24
2018-01-18T23:51:01.390Z,97783.54
2018-01-18T23:53:30.585Z,97779.61
2018-01-18T23:55:58.841Z,97777.78
2018-01-18T23:58:27.126Z,97784.72
